Terminal Aerodrome Forecast
Issued by NWS

Home | Current Version | Previous Version | Text Only | Print | Product List | Glossary On
Versions: 1 2 3 4 5 6 7 8 9 10 11 12 13 14 15 16 17 18 19 20 21 22 23 24 25 26 27 28 29 30 31 32 33 34 35 36 37 38 39 40 41 42
000
FTUS45 KBOU 142140 AAA
TAFBJC
TAF AMD
KBJC 142140Z 1422/1518 VRB04KT P6SM SCT080 BKN180
     FM142300 33012KT P6SM SCT080 BKN170
     FM150100 30007KT P6SM SCT100 BKN200
     FM150300 21007KT P6SM FEW100 SCT140 BKN200
     FM150700 35010KT P6SM SCT020
     FM150900 02007KT P6SM SCT008 BKN015
      TEMPO 1511/1515 2SM -RA BR BKN006=

USA.gov is the U.S. government's official web portal to all federal, state and local government web resources and services.